Time;durP1;ratioP1;P1;durP2;ratioP2;P2;SDS_P1;SDS_P2;PMS_P1;PMS_P2;Temp;Humidity;BMP_temperature;BMP_pressure;BME280_temperature;BME280_humidity;BME280_pressure;Samples;Min_cycle;Max_cycle;Signal;HPM_P1;HPM_P2
2021/12/05 00:19:39;;;;;;;8.50;1.65;;;;;;;;;;4903911;28;20126;-82
2021/12/05 00:24:05;;;;;;;6.88;1.20;;;;;;;;;;4903803;28;20094;-81
2021/12/05 00:26:33;;;;;;;7.90;2.00;;;;;;;;;;4902470;28;20665;-80
2021/12/05 00:42:27;;;;;;;6.95;1.35;;;;;;;;;;4901619;28;20039;-79
2021/12/05 00:53:13;;;;;;;7.45;1.65;;;;;;;;;;4901822;28;20526;-80
2021/12/05 01:16:39;;;;;;;7.75;1.27;;;;;;;;;;4904071;28;20123;-80
2021/12/05 01:19:07;;;;;;;8.98;2.53;;;;;;;;;;4882753;28;20067;-80
2021/12/05 01:21:35;;;;;;;4.03;1.17;;;;;;;;;;4883047;28;20032;-80
2021/12/05 01:24:10;;;;;;;5.22;1.05;;;;;;;;;;4884355;28;21076;-80
2021/12/05 01:29:17;;;;;;;;;;;;;;;;;;4904795;28;20139;-80
2021/12/05 01:37:02;;;;;;;5.63;1.35;;;;;;;;;;4900667;28;20040;-81
2021/12/05 01:39:51;;;;;;;7.55;2.22;;;;;;;;;;4885036;28;20036;-80
2021/12/05 02:32:16;;;;;;;10.30;2.28;;;;;;;;;;4805430;28;20075;-80
2021/12/05 02:42:31;;;;;;;9.40;1.65;;;;;;;;;;4804145;28;20069;-79
2021/12/05 02:44:57;;;;;;;8.10;2.08;;;;;;;;;;4792847;28;20808;-80
2021/12/05 02:47:25;;;;;;;6.13;1.27;;;;;;;;;;4879731;28;20040;-79
2021/12/05 02:49:54;;;;;;;6.93;1.40;;;;;;;;;;4878035;28;20086;-82
2021/12/05 02:52:26;;;;;;;8.13;1.75;;;;;;;;;;4881418;28;20630;-80
2021/12/05 02:54:54;;;;;;;7.95;1.95;;;;;;;;;;4880349;28;21285;-80
2021/12/05 02:57:44;;;;;;;7.15;1.83;;;;;;;;;;4872042;28;20040;-80
2021/12/05 03:00:11;;;;;;;7.93;1.00;;;;;;;;;;4873256;28;21127;-82
2021/12/05 03:02:41;;;;;;;10.13;1.77;;;;;;;;;;4871271;28;21463;-82
2021/12/05 03:05:11;;;;;;;8.55;1.63;;;;;;;;;;4876300;28;20119;-80
2021/12/05 03:07:41;;;;;;;6.95;1.40;;;;;;;;;;4869678;28;20090;-80
2021/12/05 03:10:08;;;;;;;7.80;1.73;;;;;;;;;;4875400;28;20901;-80
2021/12/05 03:12:36;;;;;;;7.22;1.67;;;;;;;;;;4874953;28;22351;-80
2021/12/05 03:15:04;;;;;;;8.23;1.58;;;;;;;;;;4870331;28;20041;-79
2021/12/05 03:17:31;;;;;;;6.70;1.40;;;;;;;;;;4874840;28;20033;-80
2021/12/05 03:19:57;;;;;;;;;;;;;;;;;;4875983;28;20450;-80
2021/12/05 03:22:23;;;;;;;7.70;1.60;;;;;;;;;;4878435;28;20527;-80
2021/12/05 03:24:50;;;;;;;11.00;1.63;;;;;;;;;;4876879;28;20038;-79
2021/12/05 03:27:16;;;;;;;6.78;1.20;;;;;;;;;;4877084;28;20036;-80
2021/12/05 03:29:43;;;;;;;10.73;1.58;;;;;;;;;;4887420;28;20044;-79
2021/12/05 03:32:09;;;;;;;7.25;1.40;;;;;;;;;;4879697;28;20138;-80
2021/12/05 03:34:35;;;;;;;6.95;1.33;;;;;;;;;;4896091;28;20043;-79
2021/12/05 03:37:02;;;;;;;9.38;1.70;;;;;;;;;;4900256;28;20308;-79
2021/12/05 03:39:28;;;;;;;9.15;1.10;;;;;;;;;;4900935;28;20067;-80
2021/12/05 03:41:54;;;;;;;;;;;;;;;;;;4884249;28;20047;-79
2021/12/05 03:44:22;;;;;;;8.07;1.83;;;;;;;;;;4901812;28;19916;-80
2021/12/05 03:46:49;;;;;;;7.53;1.23;;;;;;;;;;4881655;28;20030;-79
2021/12/05 03:49:15;;;;;;;9.23;1.45;;;;;;;;;;4900606;28;20091;-80
2021/12/05 03:51:41;;;;;;;;;;;;;;;;;;4902968;28;20039;-80
2021/12/05 03:54:08;;;;;;;9.73;1.55;;;;;;;;;;4900502;28;19923;-79
2021/12/05 03:56:36;;;;;;;7.72;1.50;;;;;;;;;;4882229;28;20574;-80
2021/12/05 03:59:03;;;;;;;7.45;1.38;;;;;;;;;;4889309;28;20036;-82
2021/12/05 04:01:30;;;;;;;5.82;1.23;;;;;;;;;;4900470;28;20047;-81
2021/12/05 04:03:56;;;;;;;8.38;1.30;;;;;;;;;;4880310;28;20033;-80
2021/12/05 04:06:23;;;;;;;9.70;1.67;;;;;;;;;;4882070;28;20361;-79
2021/12/05 04:08:49;;;;;;;7.53;1.30;;;;;;;;;;4883723;28;20036;-80
2021/12/05 04:11:18;;;;;;;7.68;1.38;;;;;;;;;;4883657;28;20734;-79
2021/12/05 04:13:46;;;;;;;5.60;1.08;;;;;;;;;;4881371;28;20044;-80
2021/12/05 04:16:14;;;;;;;8.15;1.50;;;;;;;;;;4881962;28;20036;-79
2021/12/05 04:18:41;;;;;;;9.20;1.60;;;;;;;;;;4888998;28;21142;-82
2021/12/05 04:21:07;;;;;;;8.40;1.70;;;;;;;;;;4892120;28;20097;-79
2021/12/05 04:23:33;;;;;;;;;;;;;;;;;;4892246;28;20036;-80
2021/12/05 04:26:00;;;;;;;7.93;1.67;;;;;;;;;;4910737;28;19919;-81
2021/12/05 04:28:26;;;;;;;;;;;;;;;;;;4895519;28;20036;-80
2021/12/05 04:30:52;;;;;;;7.35;1.40;;;;;;;;;;4911499;28;20584;-80
2021/12/05 04:33:19;;;;;;;8.45;1.40;;;;;;;;;;4891880;28;22018;-80
2021/12/05 04:35:45;;;;;;;5.82;1.20;;;;;;;;;;4911418;28;20043;-80
2021/12/05 04:38:11;;;;;;;7.30;1.30;;;;;;;;;;4914209;28;20966;-79
2021/12/05 04:40:38;;;;;;;6.55;1.63;;;;;;;;;;4897438;28;20053;-80
2021/12/05 04:43:05;;;;;;;9.15;1.40;;;;;;;;;;4897245;28;21009;-79
2021/12/05 04:45:32;;;;;;;11.10;1.70;;;;;;;;;;4899282;28;21214;-79
2021/12/05 04:48:00;;;;;;;7.50;1.23;;;;;;;;;;4897848;28;20040;-82
2021/12/05 04:50:28;;;;;;;7.45;1.45;;;;;;;;;;4919256;28;21094;-80
2021/12/05 04:52:54;;;;;;;7.13;1.20;;;;;;;;;;4903552;28;20074;-79
2021/12/05 04:55:21;;;;;;;9.18;1.48;;;;;;;;;;4922591;28;20125;-80
2021/12/05 04:57:48;;;;;;;;;;;;;;;;;;4932452;28;20039;-79
2021/12/05 05:00:17;;;;;;;8.80;1.40;;;;;;;;;;4925828;28;20234;-79
2021/12/05 05:02:44;;;;;;;7.20;1.25;;;;;;;;;;4916295;28;20051;-79
2021/12/05 05:05:10;;;;;;;;;;;;;;;;;;4922828;28;20024;-80
2021/12/05 05:07:37;;;;;;;4.38;1.10;;;;;;;;;;4916654;28;19920;-80
2021/12/05 05:10:09;;;;;;;6.95;1.17;;;;;;;;;;4918140;28;20064;-80
2021/12/05 05:12:35;;;;;;;5.53;1.30;;;;;;;;;;4901500;28;20040;-80
2021/12/05 05:15:01;;;;;;;6.18;1.05;;;;;;;;;;4896188;28;21129;-79
2021/12/05 05:17:28;;;;;;;7.22;1.20;;;;;;;;;;4912985;28;20103;-79
2021/12/05 05:20:00;;;;;;;6.00;0.93;;;;;;;;;;4892304;28;20132;-81
2021/12/05 05:22:49;;;;;;;6.35;1.08;;;;;;;;;;4896266;28;20036;-81
2021/12/05 05:26:05;;;;;;;6.40;1.20;;;;;;;;;;4891921;28;21272;-79
2021/12/05 05:39:08;;;;;;;6.95;1.30;;;;;;;;;;4912187;28;20917;-80
2021/12/05 05:39:35;;;;;;;4.50;1.00;;;;;;;;;;4913440;28;21342;-80
2021/12/05 05:50:01;;;;;;;6.85;1.05;;;;;;;;;;4911455;28;20480;-80
2021/12/05 05:52:27;;;;;;;6.00;0.98;;;;;;;;;;4911517;28;20198;-80
2021/12/05 05:54:56;;;;;;;6.30;1.13;;;;;;;;;;4892015;28;20113;-79
2021/12/05 05:57:37;;;;;;;7.30;1.00;;;;;;;;;;4908713;28;20032;-80
2021/12/05 06:00:13;;;;;;;7.38;1.10;;;;;;;;;;4891939;28;20039;-80
2021/12/05 06:05:25;;;;;;;9.07;1.30;;;;;;;;;;4910510;28;20043;-81
2021/12/05 06:07:51;;;;;;;5.43;0.90;;;;;;;;;;4891400;28;20108;-80
2021/12/05 06:10:21;;;;;;;8.00;1.27;;;;;;;;;;4901949;28;20046;-80
2021/12/05 06:12:48;;;;;;;9.60;1.50;;;;;;;;;;4879831;28;20040;-80
2021/12/05 06:15:15;;;;;;;8.75;1.35;;;;;;;;;;4877690;28;20125;-79
2021/12/05 06:17:42;;;;;;;9.45;1.20;;;;;;;;;;4881053;28;20039;-80
2021/12/05 06:20:09;;;;;;;6.65;1.15;;;;;;;;;;4880101;28;20170;-79
2021/12/05 06:22:36;;;;;;;7.40;1.08;;;;;;;;;;4898501;28;20027;-80
2021/12/05 06:25:03;;;;;;;6.82;1.15;;;;;;;;;;4878015;28;20047;-79
2021/12/05 06:27:29;;;;;;;6.93;1.23;;;;;;;;;;4879839;28;20070;-80
2021/12/05 06:30:07;;;;;;;11.52;1.48;;;;;;;;;;4879070;28;20170;-80
2021/12/05 06:38:10;;;;;;;7.78;1.00;;;;;;;;;;4899398;28;20682;-80
2021/12/05 06:48:27;;;;;;;8.60;1.10;;;;;;;;;;4895693;28;20087;-79
2021/12/05 06:50:53;;;;;;;10.80;1.77;;;;;;;;;;4878378;28;20040;-80
2021/12/05 06:53:19;;;;;;;7.85;1.20;;;;;;;;;;4876122;28;20187;-82
2021/12/05 06:55:45;;;;;;;6.43;1.00;;;;;;;;;;4878194;28;21078;-80
2021/12/05 06:58:12;;;;;;;4.55;0.85;;;;;;;;;;4898226;28;20069;-80
2021/12/05 07:00:38;;;;;;;;;;;;;;;;;;4896528;28;20031;-79
2021/12/05 07:03:07;;;;;;;8.85;1.20;;;;;;;;;;4878517;28;21694;-80
2021/12/05 07:05:53;;;;;;;4.97;0.95;;;;;;;;;;4896353;28;20161;-79
2021/12/05 07:08:22;;;;;;;7.47;1.30;;;;;;;;;;4875953;28;20084;-80
2021/12/05 07:10:57;;;;;;;7.05;1.00;;;;;;;;;;4876831;28;20027;-80
2021/12/05 07:18:43;;;;;;;8.93;1.00;;;;;;;;;;4900128;28;20297;-82
2021/12/05 07:21:32;;;;;;;6.45;1.20;;;;;;;;;;4882575;28;20765;-82
2021/12/05 07:24:21;;;;;;;6.05;1.27;;;;;;;;;;4882258;28;20131;-80
2021/12/05 07:40:29;;;;;;;5.85;1.20;;;;;;;;;;4901263;28;20051;-81
2021/12/05 07:43:00;;;;;;;7.38;1.10;;;;;;;;;;4878721;28;20042;-82
2021/12/05 07:45:30;;;;;;;7.63;1.30;;;;;;;;;;4880716;28;22747;-81
2021/12/05 07:47:57;;;;;;;8.98;1.13;;;;;;;;;;4878601;28;22340;-80
2021/12/05 07:50:43;;;;;;;6.00;1.00;;;;;;;;;;4897782;28;20032;-81
2021/12/05 07:53:17;;;;;;;8.60;1.40;;;;;;;;;;4901364;28;20777;-80
2021/12/05 07:55:46;;;;;;;6.20;1.30;;;;;;;;;;4883674;28;20051;-80
2021/12/05 07:58:44;;;;;;;5.15;0.90;;;;;;;;;;4879721;28;21512;-82
2021/12/05 08:15:09;;;;;;;6.90;1.52;;;;;;;;;;4837167;28;21316;-81
2021/12/05 08:17:36;;;;;;;6.75;1.33;;;;;;;;;;4839989;28;20087;-80
2021/12/05 08:20:03;;;;;;;6.45;1.10;;;;;;;;;;4821380;28;20029;-82
2021/12/05 08:22:29;;;;;;;8.02;1.27;;;;;;;;;;4820987;28;20049;-80
2021/12/05 08:25:00;;;;;;;7.20;0.98;;;;;;;;;;4838262;28;20045;-82
2021/12/05 08:27:26;;;;;;;4.80;1.00;;;;;;;;;;4820784;28;20045;-80
2021/12/05 08:29:56;;;;;;;4.78;0.93;;;;;;;;;;4835419;28;20100;-80
2021/12/05 08:32:45;;;;;;;6.88;1.00;;;;;;;;;;4838250;28;20036;-80
2021/12/05 08:35:25;;;;;;;4.22;0.88;;;;;;;;;;4820106;28;20037;-80
2021/12/05 08:38:38;;;;;;;5.65;0.80;;;;;;;;;;4839142;28;20049;-80
2021/12/05 08:41:07;;;;;;;6.53;1.30;;;;;;;;;;4835399;28;20079;-81
2021/12/05 09:24:52;;;;;;;5.15;1.42;;;;;;;;;;4757918;28;21208;-81
2021/12/05 10:10:44;;;;;;;6.18;1.17;;;;;;;;;;4861914;28;20029;-80
2021/12/05 10:13:18;;;;;;;8.30;1.15;;;;;;;;;;4859365;28;20037;-80
2021/12/05 10:18:50;;;;;;;7.63;1.30;;;;;;;;;;4862852;28;20196;-82
2021/12/05 10:37:47;;;;;;;3.58;1.10;;;;;;;;;;4901595;28;20870;-80
2021/12/05 10:40:18;;;;;;;6.10;1.70;;;;;;;;;;4902725;28;20036;-82
2021/12/05 10:42:46;;;;;;;7.75;1.60;;;;;;;;;;4879609;28;20491;-81
2021/12/05 10:45:33;;;;;;;9.00;1.70;;;;;;;;;;4899916;28;20032;-82
2021/12/05 10:48:04;;;;;;;7.68;1.90;;;;;;;;;;4884190;28;20698;-81
2021/12/05 10:50:42;;;;;;;8.25;1.60;;;;;;;;;;4899514;28;20032;-81
2021/12/05 10:53:29;;;;;;;8.10;2.10;;;;;;;;;;4882007;28;20370;-81
2021/12/05 10:55:55;;;;;;;6.15;1.48;;;;;;;;;;4904106;28;20074;-81
2021/12/05 10:58:23;;;;;;;6.82;1.58;;;;;;;;;;4903157;28;20063;-80
2021/12/05 11:01:02;;;;;;;7.25;1.52;;;;;;;;;;4883246;28;20027;-80
2021/12/05 11:03:29;;;;;;;8.48;1.77;;;;;;;;;;4890300;28;20044;-80
2021/12/05 11:05:55;;;;;;;10.05;2.53;;;;;;;;;;4876243;28;20040;-81
2021/12/05 11:08:32;;;;;;;7.85;1.85;;;;;;;;;;4876482;28;20028;-80
2021/12/05 11:11:15;;;;;;;8.88;2.13;;;;;;;;;;4873762;28;20086;-81
2021/12/05 11:13:43;;;;;;;8.23;1.55;;;;;;;;;;4891886;28;21591;-80
2021/12/05 11:16:28;;;;;;;8.02;1.70;;;;;;;;;;4890434;28;20036;-81
2021/12/05 11:18:55;;;;;;;9.30;1.85;;;;;;;;;;4871859;28;20094;-81
2021/12/05 11:21:33;;;;;;;9.32;2.00;;;;;;;;;;4874082;28;20029;-82
2021/12/05 11:24:07;;;;;;;10.32;2.15;;;;;;;;;;4872124;28;20051;-81
2021/12/05 11:26:33;;;;;;;9.90;2.22;;;;;;;;;;4898239;28;20652;-82
2021/12/05 11:29:00;;;;;;;10.70;3.28;;;;;;;;;;4878884;28;20789;-80
2021/12/05 11:31:32;;;;;;;11.50;2.55;;;;;;;;;;4875358;28;20043;-84
2021/12/05 11:33:58;;;;;;;9.82;2.50;;;;;;;;;;4876137;28;21557;-82
2021/12/05 11:36:26;;;;;;;9.38;2.67;;;;;;;;;;4900914;28;20182;-82
2021/12/05 11:38:52;;;;;;;6.20;1.70;;;;;;;;;;4899351;28;20042;-80
2021/12/05 11:41:20;;;;;;;10.32;2.50;;;;;;;;;;4903767;28;20038;-80
2021/12/05 11:43:52;;;;;;;6.88;1.60;;;;;;;;;;4880210;28;20655;-80
2021/12/05 11:46:25;;;;;;;8.90;1.92;;;;;;;;;;4898507;28;20787;-80
2021/12/05 11:49:02;;;;;;;9.27;2.53;;;;;;;;;;4876237;28;21442;-80
2021/12/05 11:51:34;;;;;;;9.57;3.03;;;;;;;;;;4871518;28;20031;-81
2021/12/05 11:54:03;;;;;;;15.57;5.95;;;;;;;;;;4874949;28;21502;-82
2021/12/05 11:56:32;;;;;;;10.63;2.30;;;;;;;;;;4894107;28;20131;-82
2021/12/05 11:59:08;;;;;;;7.40;1.48;;;;;;;;;;4895048;28;20116;-80
2021/12/05 12:01:36;;;;;;;11.43;4.47;;;;;;;;;;4875535;28;20625;-80
2021/12/05 12:04:02;;;;;;;10.98;3.80;;;;;;;;;;4877395;28;20121;-82
2021/12/05 12:06:28;;;;;;;13.63;5.75;;;;;;;;;;4876967;28;20074;-80
2021/12/05 12:08:55;;;;;;;8.88;3.30;;;;;;;;;;4877332;28;20833;-80
2021/12/05 12:11:23;;;;;;;10.65;2.50;;;;;;;;;;4876244;28;21284;-82
2021/12/05 12:13:50;;;;;;;15.68;4.53;;;;;;;;;;4895701;28;20579;-80
2021/12/05 12:16:17;;;;;;;11.65;2.80;;;;;;;;;;4896737;28;20032;-79
2021/12/05 12:18:47;;;;;;;10.68;1.90;;;;;;;;;;4875009;28;20044;-82
2021/12/05 12:21:19;;;;;;;12.55;2.13;;;;;;;;;;4879138;28;20527;-80
2021/12/05 12:23:46;;;;;;;9.68;2.10;;;;;;;;;;4885637;28;21811;-81
2021/12/05 12:26:13;;;;;;;7.80;1.70;;;;;;;;;;4899300;28;20113;-79
2021/12/05 12:28:42;;;;;;;9.70;2.55;;;;;;;;;;4880314;28;20157;-80
2021/12/05 12:31:08;;;;;;;10.18;2.97;;;;;;;;;;4875027;28;20036;-80
2021/12/05 12:33:34;;;;;;;;;;;;;;;;;;4877435;28;20064;-82
2021/12/05 12:36:00;;;;;;;10.75;2.00;;;;;;;;;;4877385;28;19921;-81
2021/12/05 12:38:34;;;;;;;10.30;2.60;;;;;;;;;;4874834;28;20031;-79
2021/12/05 12:41:02;;;;;;;11.05;3.13;;;;;;;;;;4876494;28;20054;-82
2021/12/05 12:43:38;;;;;;;10.55;1.90;;;;;;;;;;4875131;28;20033;-81
2021/12/05 12:46:25;;;;;;;11.38;2.60;;;;;;;;;;4878306;28;20041;-80
2021/12/05 12:48:54;;;;;;;9.68;3.28;;;;;;;;;;4873834;28;20136;-81
2021/12/05 12:51:31;;;;;;;11.23;2.13;;;;;;;;;;4874825;28;20041;-80
2021/12/05 12:53:58;;;;;;;9.43;2.45;;;;;;;;;;4875376;28;20054;-82
2021/12/05 12:56:25;;;;;;;11.30;3.33;;;;;;;;;;4877608;28;20036;-81
2021/12/05 12:58:55;;;;;;;10.10;3.15;;;;;;;;;;4877644;28;20154;-82
2021/12/05 13:12:42;;;;;;;16.60;4.15;;;;;;;;;;4881059;28;20135;-80
2021/12/05 13:15:17;;;;;;;15.25;5.22;;;;;;;;;;4878054;28;20789;-78
2021/12/05 13:17:47;;;;;;;19.98;4.47;;;;;;;;;;4879571;28;20130;-81
2021/12/05 13:20:15;;;;;;;12.90;2.80;;;;;;;;;;4884773;28;20127;-83
2021/12/05 13:23:00;;;;;;;12.40;3.65;;;;;;;;;;4881250;28;20048;-83
2021/12/05 13:25:26;;;;;;;16.38;3.17;;;;;;;;;;4882692;28;20109;-80
2021/12/05 13:27:53;;;;;;;16.02;4.10;;;;;;;;;;4943251;28;20778;-82
2021/12/05 13:30:29;;;;;;;15.05;3.95;;;;;;;;;;5039444;28;20067;-82
2021/12/05 13:33:14;;;;;;;11.73;2.78;;;;;;;;;;5045272;28;20424;-80
2021/12/05 13:35:40;;;;;;;10.15;2.58;;;;;;;;;;5044150;28;20562;-80
2021/12/05 13:38:07;;;;;;;11.27;2.70;;;;;;;;;;5043130;28;20025;-80
2021/12/05 13:40:34;;;;;;;12.98;4.28;;;;;;;;;;5031598;28;20048;-80
2021/12/05 13:43:05;;;;;;;16.73;3.63;;;;;;;;;;5040719;28;20040;-80
2021/12/05 13:45:44;;;;;;;13.98;2.90;;;;;;;;;;5038088;28;20569;-83
2021/12/05 13:48:15;;;;;;;14.60;3.30;;;;;;;;;;5038247;28;20041;-83
2021/12/05 13:50:49;;;;;;;16.90;4.25;;;;;;;;;;5031825;28;20198;-81
2021/12/05 13:53:17;;;;;;;15.77;4.05;;;;;;;;;;5042808;28;20032;-80
2021/12/05 13:55:59;;;;;;;19.13;3.55;;;;;;;;;;5039253;28;20065;-81
2021/12/05 13:58:32;;;;;;;17.63;5.72;;;;;;;;;;5037935;28;20051;-87
2021/12/05 14:00:58;;;;;;;14.40;3.83;;;;;;;;;;5044831;28;20037;-87
2021/12/05 14:03:41;;;;;;;17.50;5.35;;;;;;;;;;5039840;28;20398;-83
2021/12/05 14:06:26;;;;;;;24.10;9.25;;;;;;;;;;5034731;28;20036;-80
2021/12/05 14:08:56;;;;;;;21.98;7.95;;;;;;;;;;5037730;28;20060;-80
2021/12/05 14:11:23;;;;;;;21.73;6.55;;;;;;;;;;5054191;28;20024;-81
2021/12/05 14:13:49;;;;;;;18.15;5.82;;;;;;;;;;5054035;28;20024;-79
2021/12/05 14:16:15;;;;;;;;;;;;;;;;;;5059671;28;20040;-80
2021/12/05 14:18:42;;;;;;;18.92;6.05;;;;;;;;;;5052645;28;20664;-80
2021/12/05 14:21:15;;;;;;;19.50;5.05;;;;;;;;;;5058968;28;20086;-80
2021/12/05 14:23:48;;;;;;;14.30;3.35;;;;;;;;;;5062426;28;20877;-80
2021/12/05 14:26:15;;;;;;;18.45;5.25;;;;;;;;;;5051219;28;20378;-81
2021/12/05 14:28:41;;;;;;;20.60;6.30;;;;;;;;;;5044993;28;20052;-80
2021/12/05 14:31:07;;;;;;;21.92;6.57;;;;;;;;;;5055472;28;20119;-80
2021/12/05 14:33:53;;;;;;;16.50;5.65;;;;;;;;;;5041319;28;20052;-80
2021/12/05 14:36:20;;;;;;;22.75;9.07;;;;;;;;;;5042988;28;20064;-80
2021/12/05 14:38:46;;;;;;;19.95;6.00;;;;;;;;;;5039679;28;20121;-81
2021/12/05 14:41:13;;;;;;;17.50;5.25;;;;;;;;;;5043528;28;20028;-81
2021/12/05 14:43:39;;;;;;;20.02;7.95;;;;;;;;;;5055879;28;20119;-81
2021/12/05 14:46:05;;;;;;;27.73;12.38;;;;;;;;;;5061650;28;20039;-80
2021/12/05 14:48:31;;;;;;;17.20;4.32;;;;;;;;;;5059639;28;20031;-82
2021/12/05 14:51:00;;;;;;;13.70;3.35;;;;;;;;;;5042073;28;20093;-81
2021/12/05 14:53:28;;;;;;;17.75;6.07;;;;;;;;;;5059765;28;20032;-81
2021/12/05 14:55:58;;;;;;;21.85;4.20;;;;;;;;;;5041447;28;20024;-80
2021/12/05 14:58:27;;;;;;;19.17;3.65;;;;;;;;;;5059740;28;20038;-80
2021/12/05 15:00:57;;;;;;;18.13;5.40;;;;;;;;;;5059474;28;20509;-81
2021/12/05 15:03:25;;;;;;;21.00;5.50;;;;;;;;;;5059763;28;20046;-80
2021/12/05 15:05:54;;;;;;;14.00;4.45;;;;;;;;;;5038083;28;20566;-81
2021/12/05 15:08:29;;;;;;;18.48;6.38;;;;;;;;;;5037784;28;20052;-80
2021/12/05 15:10:57;;;;;;;14.27;4.70;;;;;;;;;;5041364;28;20032;-81
2021/12/05 15:13:24;;;;;;;38.17;20.50;;;;;;;;;;5058482;28;20039;-81
2021/12/05 15:15:50;;;;;;;;;;;;;;;;;;5035264;28;20565;-81
2021/12/05 15:18:20;;;;;;;16.58;5.80;;;;;;;;;;5036803;28;19998;-81
2021/12/05 15:20:47;;;;;;;14.63;4.25;;;;;;;;;;5028135;28;20040;-81
2021/12/05 15:23:14;;;;;;;17.42;3.00;;;;;;;;;;5051608;28;20031;-81
2021/12/05 15:25:41;;;;;;;17.02;6.03;;;;;;;;;;5026785;28;20056;-79
2021/12/05 15:28:08;;;;;;;16.13;4.22;;;;;;;;;;5040051;28;20045;-83
2021/12/05 15:30:39;;;;;;;20.10;5.70;;;;;;;;;;5057350;28;20048;-80
2021/12/05 15:33:07;;;;;;;19.75;5.88;;;;;;;;;;5041132;28;20614;-80
2021/12/05 15:35:33;;;;;;;20.58;5.05;;;;;;;;;;5036430;28;20130;-80
2021/12/05 15:38:04;;;;;;;16.77;5.22;;;;;;;;;;5041521;28;20051;-82
2021/12/05 15:40:32;;;;;;;16.48;3.78;;;;;;;;;;5032137;28;20036;-81
2021/12/05 15:43:09;;;;;;;15.75;5.03;;;;;;;;;;5039437;28;20035;-81
2021/12/05 15:45:36;;;;;;;16.67;5.10;;;;;;;;;;5037531;28;20035;-79
2021/12/05 15:48:02;;;;;;;;;;;;;;;;;;5038881;28;20036;-78
2021/12/05 15:50:30;;;;;;;20.98;7.03;;;;;;;;;;5056051;28;19916;-79
2021/12/05 15:52:58;;;;;;;21.15;6.80;;;;;;;;;;5041930;28;20052;-79
2021/12/05 15:55:26;;;;;;;19.95;6.75;;;;;;;;;;5035993;28;20110;-79
2021/12/05 15:58:00;;;;;;;14.55;5.28;;;;;;;;;;5055718;28;20043;-78
2021/12/05 16:00:30;;;;;;;13.02;4.38;;;;;;;;;;5059116;28;20151;-80
2021/12/05 16:02:57;;;;;;;14.07;3.28;;;;;;;;;;5059970;28;20139;-78
2021/12/05 16:05:24;;;;;;;14.98;4.28;;;;;;;;;;5056802;28;20024;-79
2021/12/05 16:07:51;;;;;;;16.73;6.07;;;;;;;;;;5035026;28;20611;-78
2021/12/05 16:10:19;;;;;;;20.38;7.60;;;;;;;;;;5060809;28;20032;-80
2021/12/05 16:12:46;;;;;;;19.27;6.95;;;;;;;;;;5036973;28;20043;-81
2021/12/05 16:15:14;;;;;;;17.05;5.20;;;;;;;;;;5039528;28;20689;-80
2021/12/05 16:17:51;;;;;;;16.48;7.40;;;;;;;;;;5058070;28;20040;-81
2021/12/05 16:20:19;;;;;;;22.63;10.20;;;;;;;;;;5062068;28;20032;-80
2021/12/05 16:22:55;;;;;;;22.98;10.57;;;;;;;;;;5041761;28;20040;-82
2021/12/05 16:25:21;;;;;;;23.97;10.03;;;;;;;;;;5043814;28;20403;-80
2021/12/05 16:27:49;;;;;;;18.83;6.10;;;;;;;;;;5063177;28;20103;-80
2021/12/05 16:30:25;;;;;;;16.00;6.00;;;;;;;;;;5040090;28;20059;-80
2021/12/05 16:32:52;;;;;;;20.52;6.65;;;;;;;;;;5055565;28;20036;-81
2021/12/05 16:35:46;;;;;;;16.65;4.75;;;;;;;;;;5045924;28;20249;-81
2021/12/05 16:38:26;;;;;;;17.80;6.57;;;;;;;;;;5041049;28;20047;-80
2021/12/05 16:40:52;;;;;;;17.85;6.28;;;;;;;;;;5043843;28;20044;-80
2021/12/05 16:43:18;;;;;;;27.38;11.63;;;;;;;;;;5038568;28;20024;-80
2021/12/05 16:45:45;;;;;;;20.88;9.32;;;;;;;;;;5040648;28;20068;-80
2021/12/05 16:48:11;;;;;;;;;;;;;;;;;;5065385;28;20036;-82
2021/12/05 16:50:37;;;;;;;20.10;8.85;;;;;;;;;;5059395;28;19912;-82
2021/12/05 16:53:04;;;;;;;21.30;6.18;;;;;;;;;;5041948;28;20020;-81
2021/12/05 16:55:30;;;;;;;13.55;4.90;;;;;;;;;;5026199;28;20044;-81
2021/12/05 16:58:13;;;;;;;17.95;4.63;;;;;;;;;;5014812;28;20067;-81
2021/12/05 17:00:41;;;;;;;16.90;5.13;;;;;;;;;;5032874;28;20056;-81
2021/12/05 17:03:08;;;;;;;14.40;4.70;;;;;;;;;;5021016;28;20578;-80
2021/12/05 17:05:43;;;;;;;15.95;4.55;;;;;;;;;;5011620;28;20031;-79
2021/12/05 17:08:13;;;;;;;14.18;3.88;;;;;;;;;;5021580;28;20513;-80
2021/12/05 17:10:55;;;;;;;16.73;4.82;;;;;;;;;;5015702;28;20704;-80
2021/12/05 17:13:41;;;;;;;16.95;4.10;;;;;;;;;;5037291;28;20044;-80
2021/12/05 17:16:09;;;;;;;13.00;3.78;;;;;;;;;;5040369;28;20028;-80
2021/12/05 17:18:38;;;;;;;17.80;5.20;;;;;;;;;;5020204;28;20043;-80
2021/12/05 17:21:07;;;;;;;14.18;3.42;;;;;;;;;;5032632;28;20507;-80
2021/12/05 17:23:36;;;;;;;12.32;3.20;;;;;;;;;;5038686;28;20035;-81
2021/12/05 17:26:08;;;;;;;17.00;4.72;;;;;;;;;;5044294;28;20039;-80
2021/12/05 17:28:49;;;;;;;16.45;5.95;;;;;;;;;;5060025;28;20040;-81
2021/12/05 17:31:17;;;;;;;14.35;4.72;;;;;;;;;;5017098;28;20070;-81
2021/12/05 17:33:45;;;;;;;15.35;5.40;;;;;;;;;;4895260;28;20051;-81
2021/12/05 17:36:17;;;;;;;16.33;5.60;;;;;;;;;;4877165;28;20058;-79
2021/12/05 17:38:43;;;;;;;14.35;4.40;;;;;;;;;;4874764;28;20775;-81
2021/12/05 17:41:09;;;;;;;13.43;4.45;;;;;;;;;;4895534;28;20035;-80
2021/12/05 17:43:36;;;;;;;12.85;3.17;;;;;;;;;;4874903;28;20044;-79
2021/12/05 17:46:02;;;;;;;14.23;3.95;;;;;;;;;;4891573;28;20130;-81
2021/12/05 17:48:28;;;;;;;;;;;;;;;;;;4914704;28;20067;-81
2021/12/05 17:50:55;;;;;;;16.77;4.63;;;;;;;;;;5044047;28;19954;-81
2021/12/05 17:53:27;;;;;;;12.85;2.70;;;;;;;;;;5008949;28;20071;-81
2021/12/05 17:55:59;;;;;;;11.77;2.60;;;;;;;;;;5003312;28;20032;-80
2021/12/05 18:03:57;;;;;;;10.00;2.40;;;;;;;;;;5026958;28;20541;-80
2021/12/05 18:06:24;;;;;;;8.93;2.60;;;;;;;;;;5046035;28;20656;-80
2021/12/05 18:08:50;;;;;;;12.52;3.10;;;;;;;;;;5031440;28;20076;-80
2021/12/05 18:11:22;;;;;;;14.95;5.57;;;;;;;;;;5058047;28;20023;-80
2021/12/05 18:13:53;;;;;;;14.10;4.28;;;;;;;;;;4996858;28;20163;-79
2021/12/05 18:16:23;;;;;;;12.65;3.53;;;;;;;;;;4902614;28;20036;-80
2021/12/05 18:18:55;;;;;;;16.35;4.10;;;;;;;;;;5039191;28;20888;-80
2021/12/05 18:21:22;;;;;;;11.45;3.00;;;;;;;;;;5063131;28;20050;-80
2021/12/05 18:23:48;;;;;;;10.02;2.85;;;;;;;;;;5032768;28;20576;-80
2021/12/05 18:26:16;;;;;;;10.90;3.60;;;;;;;;;;5042680;28;20039;-80
2021/12/05 18:28:42;;;;;;;15.68;5.43;;;;;;;;;;5040469;28;20036;-80
2021/12/05 18:31:11;;;;;;;17.35;6.50;;;;;;;;;;5044639;28;20040;-80
2021/12/05 18:33:37;;;;;;;16.40;5.88;;;;;;;;;;5036203;28;20035;-81
2021/12/05 18:36:05;;;;;;;12.48;4.38;;;;;;;;;;5060943;28;20743;-80
2021/12/05 18:38:32;;;;;;;15.98;3.80;;;;;;;;;;5061020;28;20055;-80
2021/12/05 18:41:06;;;;;;;20.60;5.05;;;;;;;;;;5043223;28;20648;-81
2021/12/05 18:43:32;;;;;;;15.13;4.63;;;;;;;;;;5054144;28;20048;-80
2021/12/05 18:45:59;;;;;;;12.68;4.45;;;;;;;;;;5062220;28;20039;-80
2021/12/05 18:48:25;;;;;;;15.35;4.00;;;;;;;;;;5043944;28;20113;-80
2021/12/05 18:50:51;;;;;;;;;;;;;;;;;;5048896;28;20867;-80
2021/12/05 18:53:18;;;;;;;14.60;3.40;;;;;;;;;;5039892;28;19912;-80
2021/12/05 18:55:44;;;;;;;14.07;3.67;;;;;;;;;;5034955;28;20283;-80
2021/12/05 18:58:11;;;;;;;13.70;3.35;;;;;;;;;;5039247;28;20032;-80
2021/12/05 19:06:11;;;;;;;12.27;3.53;;;;;;;;;;5058457;28;20591;-80
2021/12/05 19:09:04;;;;;;;19.80;7.50;;;;;;;;;;5054975;28;20055;-82
2021/12/05 19:11:47;;;;;;;16.58;4.45;;;;;;;;;;5057734;28;20032;-80
2021/12/05 19:14:16;;;;;;;15.82;5.38;;;;;;;;;;5058093;28;20526;-81
2021/12/05 19:16:43;;;;;;;16.92;4.50;;;;;;;;;;5054964;28;20046;-80
2021/12/05 19:19:10;;;;;;;15.48;6.78;;;;;;;;;;5064300;28;20062;-80
2021/12/05 19:21:37;;;;;;;14.25;3.65;;;;;;;;;;5053485;28;20035;-80
2021/12/05 19:24:04;;;;;;;14.23;3.85;;;;;;;;;;5035557;28;20036;-81
2021/12/05 19:26:30;;;;;;;11.02;3.20;;;;;;;;;;5057393;28;20077;-79
2021/12/05 19:28:57;;;;;;;15.88;4.07;;;;;;;;;;5043633;28;20025;-80
2021/12/05 19:31:23;;;;;;;14.88;5.70;;;;;;;;;;5055335;28;20032;-81
2021/12/05 19:33:50;;;;;;;15.60;3.45;;;;;;;;;;5035975;28;21288;-82
2021/12/05 19:36:19;;;;;;;16.02;3.88;;;;;;;;;;5040411;28;20059;-84
2021/12/05 19:38:45;;;;;;;13.95;3.10;;;;;;;;;;5050485;28;20128;-81
2021/12/05 19:41:11;;;;;;;;;;;;;;;;;;5052604;28;20465;-81
2021/12/05 19:43:38;;;;;;;47.10;29.75;;;;;;;;;;5052182;28;19923;-81
2021/12/05 19:46:06;;;;;;;19.35;7.05;;;;;;;;;;5056011;28;20032;-80
2021/12/05 19:48:32;;;;;;;13.68;3.60;;;;;;;;;;5051491;28;20032;-82
2021/12/05 19:50:59;;;;;;;17.58;6.05;;;;;;;;;;5057348;28;20180;-82
2021/12/05 19:53:25;;;;;;;16.75;4.00;;;;;;;;;;5041186;28;20085;-81
2021/12/05 19:55:52;;;;;;;8.95;2.60;;;;;;;;;;5039440;28;20523;-80
2021/12/05 19:58:18;;;;;;;16.08;5.32;;;;;;;;;;5055329;28;20043;-81
2021/12/05 20:00:45;;;;;;;16.45;4.47;;;;;;;;;;5035628;28;20511;-80
2021/12/05 20:03:11;;;;;;;36.47;21.98;;;;;;;;;;5044214;28;20462;-79
2021/12/05 20:05:39;;;;;;;17.00;7.03;;;;;;;;;;5054604;28;20028;-81
2021/12/05 20:08:06;;;;;;;19.60;7.35;;;;;;;;;;5049651;28;20144;-82
2021/12/05 20:10:33;;;;;;;17.08;4.82;;;;;;;;;;5029892;28;20131;-82
2021/12/05 20:13:01;;;;;;;13.07;3.40;;;;;;;;;;5059186;28;20401;-82
2021/12/05 20:15:30;;;;;;;12.18;3.00;;;;;;;;;;5054020;28;20040;-81
2021/12/05 20:17:56;;;;;;;11.55;3.58;;;;;;;;;;5021252;28;20581;-81